Time;durP1;ratioP1;P1;durP2;ratioP2;P2;SDS_P1;SDS_P2;PMS_P1;PMS_P2;Temp;Humidity;BMP_temperature;BMP_pressure;BME280_temperature;BME280_humidity;BME280_pressure;Samples;Min_cycle;Max_cycle;Signal;HPM_P1;HPM_P2
2023/06/20 00:00:26;;;;;;;;;2.00;2.00;;;;;;;;5049175;28;45422;-89
2023/06/20 00:02:53;;;;;;;;;3.00;1.50;;;;;;;;5054825;28;45447;-88
2023/06/20 00:05:19;;;;;;;;;2.00;2.00;;;;;;;;5056213;28;45731;-88
2023/06/20 00:07:44;;;;;;;;;3.25;2.00;;;;;;;;5050047;28;45789;-86
2023/06/20 00:10:16;;;;;;;;;3.00;3.00;;;;;;;;5038964;28;45600;-87
2023/06/20 00:13:02;;;;;;;;;3.25;1.75;;;;;;;;5039123;28;45726;-85
2023/06/20 00:15:30;;;;;;;;;2.00;2.00;;;;;;;;5043516;28;45612;-86
2023/06/20 00:18:02;;;;;;;;;2.00;1.00;;;;;;;;5043611;28;45737;-86
2023/06/20 00:20:28;;;;;;;;;2.25;2.25;;;;;;;;5040395;28;45549;-83
2023/06/20 00:22:54;;;;;;;;;3.00;1.00;;;;;;;;5045816;28;45387;-87
2023/06/20 00:25:27;;;;;;;;;2.50;1.00;;;;;;;;5033459;28;45379;-87
2023/06/20 00:27:53;;;;;;;;;6.33;4.00;;;;;;;;5042682;28;47266;-87
2023/06/20 00:30:18;;;;;;;;;8.00;7.67;;;;;;;;5042036;28;45387;-86
2023/06/20 00:32:44;;;;;;;;;8.67;8.33;;;;;;;;5041540;28;45412;-88
2023/06/20 00:35:19;;;;;;;;;7.00;7.00;;;;;;;;5050001;28;45764;-88
2023/06/20 00:38:01;;;;;;;;;7.33;6.00;;;;;;;;5033372;28;45949;-85
2023/06/20 00:40:28;;;;;;;;;3.50;3.50;;;;;;;;5040531;28;45714;-86
2023/06/20 00:42:58;;;;;;;;;4.75;4.75;;;;;;;;5044774;28;45872;-86
2023/06/20 00:45:26;;;;;;;;;3.00;3.00;;;;;;;;5037200;28;45738;-87
2023/06/20 00:48:03;;;;;;;;;2.25;2.25;;;;;;;;5041341;28;46582;-87
2023/06/20 00:50:38;;;;;;;;;2.50;2.00;;;;;;;;5052017;28;45461;-85
2023/06/20 00:53:08;;;;;;;;;2.50;2.50;;;;;;;;5057760;28;45571;-83
2023/06/20 00:55:41;;;;;;;;;3.00;2.00;;;;;;;;5042030;28;46597;-83
2023/06/20 00:58:13;;;;;;;;;3.00;2.25;;;;;;;;5044970;28;46772;-85
2023/06/20 01:01:01;;;;;;;;;1.00;1.00;;;;;;;;5056992;28;45578;-85
2023/06/20 01:03:37;;;;;;;;;1.25;1.25;;;;;;;;5046230;28;45529;-84
2023/06/20 01:06:09;;;;;;;;;2.00;2.00;;;;;;;;5055923;28;45483;-87
2023/06/20 01:11:56;;;;;;;;;2.25;2.25;;;;;;;;5046304;28;45593;-85
2023/06/20 01:14:24;;;;;;;;;3.00;1.00;;;;;;;;5039410;28;45472;-88
2023/06/20 01:17:04;;;;;;;;;3.00;2.25;;;;;;;;5052797;28;46292;-87
2023/06/20 01:19:36;;;;;;;;;2.00;1.25;;;;;;;;5045447;28;45587;-87
2023/06/20 01:22:06;;;;;;;;;2.00;2.00;;;;;;;;5054247;28;45246;-86
2023/06/20 01:28:03;;;;;;;;;3.00;3.00;;;;;;;;5033356;28;45674;-86
2023/06/20 01:30:36;;;;;;;;;2.75;2.75;;;;;;;;5044503;28;47396;-85
2023/06/20 01:33:08;;;;;;;;;2.50;2.25;;;;;;;;5049650;28;45501;-86
2023/06/20 01:35:44;;;;;;;;;2.00;2.00;;;;;;;;5063987;28;44821;-85
2023/06/20 01:38:14;;;;;;;;;2.00;2.00;;;;;;;;5062956;28;45723;-84
2023/06/20 01:40:50;;;;;;;;;2.00;1.00;;;;;;;;5065000;28;45751;-85
2023/06/20 01:43:22;;;;;;;;;5.75;3.00;;;;;;;;5062168;28;45844;-86
2023/06/20 01:45:49;;;;;;;;;3.25;2.75;;;;;;;;5057276;28;45489;-84
2023/06/20 01:48:16;;;;;;;;;2.75;2.50;;;;;;;;5048274;28;46131;-84
2023/06/20 01:50:42;;;;;;;;;3.50;3.25;;;;;;;;5051905;28;48202;-83
2023/06/20 01:53:08;;;;;;;;;2.00;2.00;;;;;;;;5055281;28;45461;-82
2023/06/20 01:55:41;;;;;;;;;2.75;2.25;;;;;;;;5044777;28;45415;-82
2023/06/20 01:58:13;;;;;;;;;3.75;1.00;;;;;;;;5045064;28;45907;-85
2023/06/20 02:00:39;;;;;;;;;2.50;2.00;;;;;;;;5050632;28;45572;-83
2023/06/20 02:03:05;;;;;;;;;6.00;3.75;;;;;;;;5048048;28;45889;-83
2023/06/20 02:05:34;;;;;;;;;5.25;2.75;;;;;;;;5048491;28;45615;-84
2023/06/20 02:08:03;;;;;;;;;3.50;2.00;;;;;;;;5041197;28;45733;-83
2023/06/20 02:10:29;;;;;;;;;3.00;1.00;;;;;;;;5057818;28;46214;-85
2023/06/20 02:12:56;;;;;;;;;3.25;3.25;;;;;;;;5049256;28;45513;-84
2023/06/20 02:15:26;;;;;;;;;2.00;2.00;;;;;;;;5056692;28;45525;-84
2023/06/20 02:17:51;;;;;;;;;5.50;3.00;;;;;;;;5064692;28;45515;-85
2023/06/20 02:20:17;;;;;;;;;2.00;2.00;;;;;;;;5034498;28;47660;-84
2023/06/20 02:22:44;;;;;;;;;4.25;4.25;;;;;;;;5045451;28;45533;-84
2023/06/20 02:25:12;;;;;;;;;3.00;3.00;;;;;;;;5044012;28;45427;-86
2023/06/20 02:27:39;;;;;;;;;5.25;3.00;;;;;;;;5076498;28;45337;-87
2023/06/20 02:30:17;;;;;;;;;4.75;2.00;;;;;;;;5056667;28;45308;-88
2023/06/20 02:33:07;;;;;;;;;3.25;2.75;;;;;;;;5055883;28;45226;-87
2023/06/20 02:35:37;;;;;;;;;4.00;2.00;;;;;;;;5059424;28;45395;-85
2023/06/20 02:38:42;;;;;;;;;;;;;;;;;;;;;
2023/06/20 02:41:08;;;;;;;;;3.50;2.25;;;;;;;;5049255;28;74328;-86
2023/06/20 02:43:42;;;;;;;;;1.50;1.50;;;;;;;;5045710;28;45514;-87
2023/06/20 02:46:27;;;;;;;;;3.50;3.50;;;;;;;;5046215;28;45540;-87
2023/06/20 02:49:20;;;;;;;;;;;;;;;;;;;;;
2023/06/20 02:52:14;;;;;;;;;4.25;3.25;;;;;;;;5021610;28;75360;-88
2023/06/20 02:54:47;;;;;;;;;2.00;2.00;;;;;;;;5039519;28;45431;-86
2023/06/20 02:57:18;;;;;;;;;3.00;2.25;;;;;;;;5051609;28;45357;-87
2023/06/20 02:59:52;;;;;;;;;4.25;4.25;;;;;;;;5023729;28;46369;-86
2023/06/20 03:02:18;;;;;;;;;3.67;3.67;;;;;;;;5043275;28;45827;-87
2023/06/20 03:04:57;;;;;;;;;6.25;4.50;;;;;;;;5027460;28;45471;-86
2023/06/20 03:07:23;;;;;;;;;4.25;2.00;;;;;;;;5045787;28;45516;-86
2023/06/20 03:09:50;;;;;;;;;3.50;3.25;;;;;;;;5009739;28;45630;-85
2023/06/20 03:12:15;;;;;;;;;3.00;3.00;;;;;;;;5050189;28;45956;-86
2023/06/20 03:14:41;;;;;;;;;5.25;5.25;;;;;;;;5027879;28;45455;-82
2023/06/20 03:17:06;;;;;;;;;5.00;4.00;;;;;;;;5053476;28;45941;-84
2023/06/20 03:19:34;;;;;;;;;4.00;4.00;;;;;;;;5026940;28;45960;-85
2023/06/20 03:21:59;;;;;;;;;5.25;2.75;;;;;;;;5043192;28;45408;-86
2023/06/20 03:24:26;;;;;;;;;3.00;2.50;;;;;;;;5039026;28;45368;-84
2023/06/20 03:26:51;;;;;;;;;3.75;1.50;;;;;;;;5029394;28;45628;-85
2023/06/20 03:29:17;;;;;;;;;6.00;3.00;;;;;;;;5033575;28;45780;-85
2023/06/20 03:31:42;;;;;;;;;6.33;4.33;;;;;;;;5050808;28;46392;-86
2023/06/20 03:34:16;;;;;;;;;3.50;2.75;;;;;;;;5041071;28;44729;-85
2023/06/20 03:36:44;;;;;;;;;4.00;4.00;;;;;;;;5026064;28;45440;-86
2023/06/20 03:39:10;;;;;;;;;4.75;4.25;;;;;;;;5044470;28;45246;-85
2023/06/20 03:41:38;;;;;;;;;5.00;4.00;;;;;;;;5045713;28;45601;-87
2023/06/20 03:44:25;;;;;;;;;6.33;3.00;;;;;;;;5048865;28;45442;-86
2023/06/20 03:46:51;;;;;;;;;3.00;2.00;;;;;;;;5038825;28;45393;-85
2023/06/20 03:49:38;;;;;;;;;4.00;3.25;;;;;;;;5040274;27;46768;-87
2023/06/20 03:52:13;;;;;;;;;7.00;5.00;;;;;;;;5066716;28;47100;-85
2023/06/20 03:54:40;;;;;;;;;3.33;3.33;;;;;;;;5032083;28;45788;-87
2023/06/20 03:57:16;;;;;;;;;4.00;4.00;;;;;;;;5063180;28;45324;-86
2023/06/20 03:59:42;;;;;;;;;5.00;5.00;;;;;;;;5055219;28;45508;-84
2023/06/20 04:02:08;;;;;;;;;7.50;4.00;;;;;;;;5043927;28;45458;-86
2023/06/20 04:04:37;;;;;;;;;7.67;7.67;;;;;;;;5059278;28;45403;-85
2023/06/20 04:07:02;;;;;;;;;5.50;5.25;;;;;;;;5053496;28;44820;-83
2023/06/20 04:09:27;;;;;;;;;6.00;6.00;;;;;;;;5074701;28;45193;-84
2023/06/20 04:12:04;;;;;;;;;6.25;3.75;;;;;;;;5074941;28;45992;-87
2023/06/20 04:14:48;;;;;;;;;6.67;6.33;;;;;;;;5069744;28;45223;-89
2023/06/20 04:17:45;;;;;;;;;4.50;4.00;;;;;;;;5076803;28;45389;-87
2023/06/20 04:20:19;;;;;;;;;5.00;4.25;;;;;;;;5056633;28;46076;-88
2023/06/20 04:22:57;;;;;;;;;4.50;4.00;;;;;;;;5057191;28;45394;-87
2023/06/20 04:25:31;;;;;;;;;4.25;4.25;;;;;;;;5058964;28;45566;-89
2023/06/20 04:28:08;;;;;;;;;;;;;;;;;;;;;
2023/06/20 04:30:35;;;;;;;;;7.00;6.33;;;;;;;;5065685;28;74538;-87
2023/06/20 04:33:01;;;;;;;;;6.50;6.00;;;;;;;;5065027;28;45461;-88
2023/06/20 04:35:36;;;;;;;;;5.25;3.75;;;;;;;;5054356;28;45569;-86
2023/06/20 04:38:03;;;;;;;;;6.00;4.00;;;;;;;;5043596;28;45321;-86
2023/06/20 04:40:29;;;;;;;;;7.00;6.00;;;;;;;;5071313;28;45450;-88
2023/06/20 04:42:57;;;;;;;;;4.25;4.25;;;;;;;;5060026;28;45592;-86
2023/06/20 04:45:27;;;;;;;;;4.75;4.25;;;;;;;;5055730;28;45417;-87
2023/06/20 04:47:54;;;;;;;;;6.00;6.00;;;;;;;;5055892;28;45394;-88
2023/06/20 04:50:22;;;;;;;;;6.50;5.25;;;;;;;;5087808;27;45233;-87
2023/06/20 04:52:48;;;;;;;;;5.25;5.25;;;;;;;;5068632;28;45431;-85
2023/06/20 04:55:15;;;;;;;;;3.50;3.00;;;;;;;;5060321;28;45480;-86
2023/06/20 04:57:44;;;;;;;;;5.50;5.50;;;;;;;;5056368;28;44868;-86
2023/06/20 05:00:14;;;;;;;;;5.00;4.25;;;;;;;;5055331;28;45578;-86
2023/06/20 05:02:58;;;;;;;;;6.75;5.00;;;;;;;;5068931;28;45587;-86
2023/06/20 05:05:30;;;;;;;;;3.75;3.75;;;;;;;;5042924;28;45552;-87
2023/06/20 05:07:59;;;;;;;;;5.25;4.00;;;;;;;;5067078;28;45707;-86
2023/06/20 05:10:28;;;;;;;;;7.75;4.75;;;;;;;;5061952;28;45594;-86
2023/06/20 05:12:54;;;;;;;;;4.75;4.75;;;;;;;;5057069;28;45773;-86
2023/06/20 05:15:40;;;;;;;;;6.50;4.00;;;;;;;;5048345;28;45305;-87
2023/06/20 05:18:09;;;;;;;;;6.50;6.25;;;;;;;;5049664;28;45529;-89
2023/06/20 05:20:57;;;;;;;;;7.25;5.25;;;;;;;;5050065;28;45473;-87
2023/06/20 05:23:30;;;;;;;;;4.75;4.75;;;;;;;;5053170;28;45853;-85
2023/06/20 05:26:35;;;;;;;;;;;;;;;;;;;;;
2023/06/20 05:29:04;;;;;;;;;7.25;5.00;;;;;;;;4978616;28;67690;-86
2023/06/20 05:31:40;;;;;;;;;5.50;5.00;;;;;;;;5002108;28;45431;-86
2023/06/20 05:34:16;;;;;;;;;5.00;5.00;;;;;;;;5017877;28;46651;-86
2023/06/20 05:37:02;;;;;;;;;6.00;5.50;;;;;;;;5041104;28;45450;-88
2023/06/20 05:39:28;;;;;;;;;5.00;4.00;;;;;;;;5052418;28;45430;-84
2023/06/20 05:42:02;;;;;;;;;5.75;5.00;;;;;;;;5062968;28;45514;-84
2023/06/20 05:45:02;;;;;;;;;5.50;4.25;;;;;;;;5046507;28;46695;-89
2023/06/20 05:47:30;;;;;;;;;6.00;4.50;;;;;;;;4947638;28;45343;-87
2023/06/20 05:50:22;;;;;;;;;;;;;;;;;;;;;
2023/06/20 05:52:49;;;;;;;;;4.75;4.75;;;;;;;;5052149;28;74900;-88
2023/06/20 05:55:14;;;;;;;;;4.75;4.00;;;;;;;;5045674;28;46065;-87
2023/06/20 05:57:46;;;;;;;;;8.00;4.00;;;;;;;;5067593;28;45287;-89
2023/06/20 06:00:13;;;;;;;;;5.00;4.75;;;;;;;;5086006;27;44715;-86
2023/06/20 06:02:39;;;;;;;;;7.00;6.00;;;;;;;;5071169;27;45973;-86
2023/06/20 06:05:04;;;;;;;;;5.50;4.50;;;;;;;;5061915;28;47305;-86
2023/06/20 06:07:31;;;;;;;;;5.00;5.00;;;;;;;;5081304;28;44694;-84
2023/06/20 06:09:56;;;;;;;;;8.00;5.00;;;;;;;;5061801;28;45953;-84
2023/06/20 06:12:21;;;;;;;;;8.00;7.00;;;;;;;;5088533;28;45402;-83
2023/06/20 06:14:47;;;;;;;;;7.00;7.00;;;;;;;;5070232;28;45272;-85
2023/06/20 06:17:13;;;;;;;;;9.00;4.25;;;;;;;;5063492;28;44814;-84
2023/06/20 06:19:38;;;;;;;;;6.00;6.00;;;;;;;;5066042;28;44741;-86
2023/06/20 06:22:04;;;;;;;;;8.00;7.00;;;;;;;;5065657;28;44808;-86
2023/06/20 06:24:29;;;;;;;;;8.25;5.25;;;;;;;;5078337;28;46008;-85
2023/06/20 06:26:58;;;;;;;;;5.00;5.00;;;;;;;;5078656;28;44809;-84
2023/06/20 06:29:25;;;;;;;;;6.50;5.75;;;;;;;;5074051;27;44698;-85
2023/06/20 06:31:51;;;;;;;;;6.25;6.00;;;;;;;;5067333;28;45674;-85
2023/06/20 06:34:16;;;;;;;;;4.00;4.00;;;;;;;;5071960;28;45292;-84
2023/06/20 06:36:43;;;;;;;;;8.00;7.75;;;;;;;;5074331;28;45512;-83
2023/06/20 06:39:12;;;;;;;;;8.25;8.00;;;;;;;;5081329;28;44789;-84
2023/06/20 06:41:37;;;;;;;;;7.25;6.25;;;;;;;;5091556;28;44850;-83
2023/06/20 06:44:03;;;;;;;;;7.50;7.00;;;;;;;;5075689;28;45753;-87
2023/06/20 06:46:29;;;;;;;;;5.00;4.00;;;;;;;;5070897;28;45441;-83
2023/06/20 06:48:54;;;;;;;;;3.25;3.25;;;;;;;;5069624;28;44737;-84
2023/06/20 06:51:20;;;;;;;;;6.25;6.25;;;;;;;;5092784;28;45174;-84
2023/06/20 06:53:45;;;;;;;;;8.25;8.25;;;;;;;;5063179;28;47219;-83
2023/06/20 06:56:10;;;;;;;;;6.00;6.00;;;;;;;;5081978;28;45423;-84
2023/06/20 06:58:36;;;;;;;;;7.25;7.25;;;;;;;;5085003;28;44737;-82
2023/06/20 07:01:01;;;;;;;;;10.25;7.50;;;;;;;;5092067;27;44820;-82
2023/06/20 07:03:29;;;;;;;;;9.50;6.25;;;;;;;;5075249;27;45017;-82
2023/06/20 07:05:55;;;;;;;;;8.75;7.00;;;;;;;;5060549;27;45863;-83
2023/06/20 07:08:20;;;;;;;;;5.00;5.00;;;;;;;;5049656;28;44891;-84
2023/06/20 07:10:47;;;;;;;;;6.75;5.50;;;;;;;;5038021;28;46987;-82
2023/06/20 07:13:12;;;;;;;;;11.00;8.75;;;;;;;;5033806;28;47346;-85
2023/06/20 07:15:38;;;;;;;;;9.75;7.75;;;;;;;;5056828;28;45620;-83
2023/06/20 07:18:03;;;;;;;;;8.50;8.50;;;;;;;;5062925;28;45515;-85
2023/06/20 07:20:29;;;;;;;;;6.50;6.50;;;;;;;;5043383;28;46010;-84
2023/06/20 07:22:54;;;;;;;;;10.75;9.75;;;;;;;;5059661;28;46238;-85
2023/06/20 07:25:20;;;;;;;;;8.75;7.00;;;;;;;;5039301;28;45474;-86
2023/06/20 07:27:47;;;;;;;;;8.00;7.25;;;;;;;;5044876;28;45747;-84
2023/06/20 07:33:18;;;;;;;;;8.25;8.25;;;;;;;;5058647;28;45482;-89
2023/06/20 07:39:02;;;;;;;;;12.25;10.50;;;;;;;;5057268;28;45506;-90
2023/06/20 07:41:45;;;;;;;;;8.50;8.25;;;;;;;;5053575;28;45538;-90
2023/06/20 07:44:21;;;;;;;;;9.25;7.75;;;;;;;;5075443;28;45522;-86
2023/06/20 07:46:46;;;;;;;;;11.00;9.00;;;;;;;;5069459;28;45375;-88
2023/06/20 07:49:15;;;;;;;;;7.75;7.75;;;;;;;;5064595;28;45104;-87
2023/06/20 07:52:18;;;;;;;;;11.00;9.50;;;;;;;;5038085;28;45987;-88
2023/06/20 07:55:02;;;;;;;;;;;;;;;;;;;;;
2023/06/20 07:57:46;;;;;;;;;8.25;8.00;;;;;;;;5056158;28;73213;-89
2023/06/20 08:06:16;;;;;;;;;13.25;10.25;;;;;;;;5051392;28;45883;-75
2023/06/20 08:08:43;;;;;;;;;8.50;8.50;;;;;;;;5053236;28;45822;-74
2023/06/20 08:11:08;;;;;;;;;11.00;9.25;;;;;;;;5053314;28;45908;-74
2023/06/20 08:13:33;;;;;;;;;10.25;10.25;;;;;;;;5052866;28;45472;-74
2023/06/20 08:15:59;;;;;;;;;10.75;9.75;;;;;;;;5053217;28;46348;-75
2023/06/20 08:18:24;;;;;;;;;11.00;10.75;;;;;;;;5035117;28;45802;-74
2023/06/20 08:20:50;;;;;;;;;12.50;11.00;;;;;;;;5053277;28;45538;-75
2023/06/20 08:23:22;;;;;;;;;12.50;9.75;;;;;;;;5052466;28;45617;-73
2023/06/20 08:25:47;;;;;;;;;13.75;12.00;;;;;;;;5050534;28;45856;-74
2023/06/20 08:28:12;;;;;;;;;13.00;11.50;;;;;;;;5034989;28;45897;-76
2023/06/20 08:30:38;;;;;;;;;14.50;12.25;;;;;;;;5053562;28;45384;-78
2023/06/20 08:33:03;;;;;;;;;12.25;11.00;;;;;;;;5033861;28;46181;-78
2023/06/20 08:35:28;;;;;;;;;9.50;9.50;;;;;;;;5040951;28;45639;-79
2023/06/20 08:37:53;;;;;;;;;9.50;9.50;;;;;;;;5051657;28;45421;-79
2023/06/20 08:40:19;;;;;;;;;12.00;9.75;;;;;;;;5034092;28;45465;-76
2023/06/20 08:42:45;;;;;;;;;10.75;9.75;;;;;;;;5051937;28;45564;-77
2023/06/20 08:45:12;;;;;;;;;15.25;10.00;;;;;;;;5052630;28;45919;-77
2023/06/20 08:47:38;;;;;;;;;11.00;10.50;;;;;;;;5052949;28;45471;-78
2023/06/20 08:50:03;;;;;;;;;11.00;9.50;;;;;;;;5051560;28;45647;-76
2023/06/20 08:52:29;;;;;;;;;13.75;11.25;;;;;;;;5052217;28;45469;-76
2023/06/20 08:54:55;;;;;;;;;10.75;10.75;;;;;;;;5042543;28;45781;-76
2023/06/20 08:57:21;;;;;;;;;11.50;9.75;;;;;;;;5052348;28;46074;-74
2023/06/20 08:59:46;;;;;;;;;13.00;10.50;;;;;;;;5051386;28;45825;-77
2023/06/20 09:02:11;;;;;;;;;15.25;10.50;;;;;;;;5034095;28;45703;-76
2023/06/20 09:04:37;;;;;;;;;12.00;11.00;;;;;;;;5031120;28;48362;-79
2023/06/20 09:07:13;;;;;;;;;12.75;11.00;;;;;;;;5031266;28;45702;-77
2023/06/20 09:09:39;;;;;;;;;10.50;9.50;;;;;;;;5052535;28;45612;-77
2023/06/20 09:12:05;;;;;;;;;11.50;11.50;;;;;;;;5051186;28;46170;-77
2023/06/20 09:14:30;;;;;;;;;11.00;10.75;;;;;;;;5033503;28;47861;-78
2023/06/20 09:16:55;;;;;;;;;10.75;10.00;;;;;;;;5036237;28;45678;-75
2023/06/20 09:19:21;;;;;;;;;12.25;12.25;;;;;;;;5039699;28;45374;-77
2023/06/20 09:21:47;;;;;;;;;12.50;11.00;;;;;;;;5056034;28;45580;-77
2023/06/20 09:24:15;;;;;;;;;12.00;11.50;;;;;;;;5055254;28;45742;-77
2023/06/20 09:26:40;;;;;;;;;12.75;10.25;;;;;;;;5054663;28;45367;-74
2023/06/20 09:29:07;;;;;;;;;12.50;11.00;;;;;;;;5037874;28;45777;-72
2023/06/20 09:31:49;;;;;;;;;12.75;10.50;;;;;;;;5055354;28;45781;-74
2023/06/20 09:34:18;;;;;;;;;7.25;7.00;;;;;;;;5054640;28;46054;-73
2023/06/20 09:36:43;;;;;;;;;14.50;9.50;;;;;;;;5057281;28;45338;-72
2023/06/20 09:39:24;;;;;;;;;13.25;13.25;;;;;;;;5055571;28;45945;-71
2023/06/20 09:41:50;;;;;;;;;9.25;9.00;;;;;;;;5054544;28;45679;-70
2023/06/20 09:44:19;;;;;;;;;12.50;10.00;;;;;;;;5055004;28;45483;-71
2023/06/20 09:46:44;;;;;;;;;11.00;11.00;;;;;;;;5055251;28;45516;-73
2023/06/20 09:49:14;;;;;;;;;9.00;9.00;;;;;;;;5037327;28;45812;-69
2023/06/20 09:51:49;;;;;;;;;9.75;9.75;;;;;;;;5027678;28;45454;-71
2023/06/20 09:54:19;;;;;;;;;13.00;10.50;;;;;;;;5036969;28;48155;-73
2023/06/20 09:56:52;;;;;;;;;8.50;8.50;;;;;;;;5056027;28;45366;-72
2023/06/20 09:59:18;;;;;;;;;11.75;10.50;;;;;;;;5054347;28;45746;-73
2023/06/20 10:01:43;;;;;;;;;9.00;9.00;;;;;;;;5054319;28;45482;-76
2023/06/20 10:04:08;;;;;;;;;9.00;9.00;;;;;;;;5054184;28;45975;-74
2023/06/20 10:06:37;;;;;;;;;15.00;11.25;;;;;;;;5053403;28;45380;-76
2023/06/20 10:09:07;;;;;;;;;8.00;8.00;;;;;;;;5044316;28;45595;-75
2023/06/20 10:11:33;;;;;;;;;9.00;7.75;;;;;;;;5050933;28;45779;-74
2023/06/20 10:13:59;;;;;;;;;6.75;6.75;;;;;;;;5042783;28;45319;-71
2023/06/20 10:16:27;;;;;;;;;9.25;9.25;;;;;;;;5052393;28;45581;-77
2023/06/20 10:18:53;;;;;;;;;10.75;8.00;;;;;;;;5051758;28;45844;-81
2023/06/20 10:21:38;;;;;;;;;7.25;7.25;;;;;;;;5055744;28;45818;-75
2023/06/20 10:24:03;;;;;;;;;10.75;9.75;;;;;;;;5052032;28;45941;-74
2023/06/20 10:26:32;;;;;;;;;10.00;8.00;;;;;;;;5049854;28;45780;-76
2023/06/20 10:28:57;;;;;;;;;9.75;9.75;;;;;;;;5035884;28;45750;-74
2023/06/20 10:31:22;;;;;;;;;9.50;8.25;;;;;;;;5054503;28;45727;-71
2023/06/20 10:33:48;;;;;;;;;9.25;9.25;;;;;;;;5044873;28;46090;-74
2023/06/20 10:36:16;;;;;;;;;5.75;5.75;;;;;;;;5052322;28;45475;-75
2023/06/20 10:38:48;;;;;;;;;8.00;7.00;;;;;;;;5039098;28;45642;-75
2023/06/20 10:41:14;;;;;;;;;8.75;6.75;;;;;;;;5062760;28;45979;-74
2023/06/20 10:43:48;;;;;;;;;7.75;6.50;;;;;;;;5053268;28;45579;-71
2023/06/20 10:46:13;;;;;;;;;6.50;4.00;;;;;;;;5053866;28;45304;-70
2023/06/20 10:48:39;;;;;;;;;5.00;5.00;;;;;;;;5053859;28;45492;-70
2023/06/20 10:51:04;;;;;;;;;6.00;6.00;;;;;;;;5053487;28;45634;-72
2023/06/20 10:53:30;;;;;;;;;8.00;7.25;;;;;;;;5052517;28;45490;-72
2023/06/20 10:55:55;;;;;;;;;5.25;5.25;;;;;;;;5035495;28;45320;-71
2023/06/20 10:58:21;;;;;;;;;2.75;2.75;;;;;;;;5036503;28;45628;-71
2023/06/20 11:00:47;;;;;;;;;8.25;7.50;;;;;;;;5053224;28;45446;-70
2023/06/20 11:03:13;;;;;;;;;6.75;6.00;;;;;;;;5053426;28;46569;-70
2023/06/20 11:05:39;;;;;;;;;4.75;4.75;;;;;;;;5054269;28;45389;-70
2023/06/20 11:08:05;;;;;;;;;6.00;4.50;;;;;;;;5036598;28;46955;-71
2023/06/20 11:10:32;;;;;;;;;5.00;5.00;;;;;;;;5053730;28;45864;-69
2023/06/20 11:12:58;;;;;;;;;8.00;7.25;;;;;;;;5035984;28;48316;-70
2023/06/20 11:15:28;;;;;;;;;6.50;5.00;;;;;;;;5054785;28;45390;-71
2023/06/20 11:17:54;;;;;;;;;4.25;4.25;;;;;;;;5054364;28;45776;-72
2023/06/20 11:20:23;;;;;;;;;6.00;6.00;;;;;;;;5053785;28;47027;-71
2023/06/20 11:22:49;;;;;;;;;6.00;5.25;;;;;;;;5053686;28;45950;-73
2023/06/20 11:25:25;;;;;;;;;4.75;4.75;;;;;;;;5054458;28;45699;-70
2023/06/20 11:27:50;;;;;;;;;5.25;5.25;;;;;;;;5053998;28;45836;-70
2023/06/20 11:30:15;;;;;;;;;6.00;6.00;;;;;;;;5053109;28;45744;-70
2023/06/20 11:32:41;;;;;;;;;6.50;5.00;;;;;;;;5053765;28;45634;-71
2023/06/20 11:35:08;;;;;;;;;6.25;6.25;;;;;;;;5055421;28;45383;-71
2023/06/20 11:37:34;;;;;;;;;5.00;5.00;;;;;;;;5055821;28;45409;-70
2023/06/20 11:39:59;;;;;;;;;4.50;4.50;;;;;;;;5055143;28;45551;-70
2023/06/20 11:42:31;;;;;;;;;4.75;4.75;;;;;;;;5049144;28;45822;-71
2023/06/20 11:45:06;;;;;;;;;5.00;5.00;;;;;;;;5049071;28;45342;-72
2023/06/20 11:47:31;;;;;;;;;5.75;5.75;;;;;;;;5053793;28;45500;-72
2023/06/20 11:49:57;;;;;;;;;4.50;3.75;;;;;;;;5054422;28;45632;-72
2023/06/20 11:52:29;;;;;;;;;6.00;5.75;;;;;;;;5054409;28;45422;-71
2023/06/20 11:54:56;;;;;;;;;5.00;4.75;;;;;;;;5054329;28;45452;-72
2023/06/20 11:57:28;;;;;;;;;7.00;7.00;;;;;;;;5055308;28;45601;-72
2023/06/20 11:59:54;;;;;;;;;5.50;5.50;;;;;;;;5046762;28;45684;-71
2023/06/20 12:02:20;;;;;;;;;6.00;6.00;;;;;;;;5053782;28;45475;-70
2023/06/20 12:04:56;;;;;;;;;6.25;6.25;;;;;;;;5053229;28;45460;-68
2023/06/20 12:07:21;;;;;;;;;4.75;4.00;;;;;;;;5053666;28;45704;-72
2023/06/20 12:09:46;;;;;;;;;6.75;5.25;;;;;;;;5051833;28;45719;-70
2023/06/20 12:12:12;;;;;;;;;6.00;6.00;;;;;;;;5052234;28;46095;-69
2023/06/20 12:14:37;;;;;;;;;5.25;5.25;;;;;;;;5051990;28;45694;-70
2023/06/20 12:17:03;;;;;;;;;5.75;5.75;;;;;;;;5035897;28;45622;-71
2023/06/20 12:19:28;;;;;;;;;9.50;6.75;;;;;;;;5052235;28;46584;-70
2023/06/20 12:21:54;;;;;;;;;9.50;8.50;;;;;;;;5051147;28;45704;-73
2023/06/20 12:24:20;;;;;;;;;7.25;7.25;;;;;;;;5052506;28;45418;-70
2023/06/20 12:26:51;;;;;;;;;8.00;7.00;;;;;;;;5052929;28;45537;-72
2023/06/20 12:29:16;;;;;;;;;7.50;7.50;;;;;;;;5050412;28;45696;-73
2023/06/20 12:31:44;;;;;;;;;8.75;7.75;;;;;;;;5057420;28;45616;-72
2023/06/20 12:34:10;;;;;;;;;6.00;6.00;;;;;;;;5034041;28;45511;-79
2023/06/20 12:36:35;;;;;;;;;8.00;8.00;;;;;;;;5051673;28;45808;-79
2023/06/20 12:39:00;;;;;;;;;8.00;8.00;;;;;;;;5053341;28;45626;-78
2023/06/20 12:41:32;;;;;;;;;8.25;6.50;;;;;;;;5036329;28;46202;-80
2023/06/20 12:43:58;;;;;;;;;8.25;7.00;;;;;;;;5047236;28;45838;-79
2023/06/20 12:46:23;;;;;;;;;8.00;8.00;;;;;;;;5055698;28;45565;-81
2023/06/20 12:48:48;;;;;;;;;9.50;9.00;;;;;;;;5055258;28;45832;-79
2023/06/20 12:51:14;;;;;;;;;5.00;5.00;;;;;;;;5034035;28;47130;-78
2023/06/20 12:53:40;;;;;;;;;8.00;7.25;;;;;;;;5051085;28;45766;-77
2023/06/20 12:56:05;;;;;;;;;5.00;5.00;;;;;;;;5052711;28;45631;-80
2023/06/20 12:58:32;;;;;;;;;7.75;7.75;;;;;;;;5052423;28;45994;-76
2023/06/20 13:00:57;;;;;;;;;11.25;9.75;;;;;;;;5032212;28;46624;-78
2023/06/20 13:03:22;;;;;;;;;9.00;8.25;;;;;;;;5051421;28;45693;-79
2023/06/20 13:05:48;;;;;;;;;10.00;9.00;;;;;;;;5053039;28;45330;-78
2023/06/20 13:08:13;;;;;;;;;8.75;8.00;;;;;;;;5051759;28;45678;-79
2023/06/20 13:10:38;;;;;;;;;7.00;7.00;;;;;;;;5050450;28;45515;-79
2023/06/20 13:13:04;;;;;;;;;8.00;8.00;;;;;;;;5052967;28;45291;-80
2023/06/20 13:15:32;;;;;;;;;9.50;7.50;;;;;;;;5053202;28;45353;-80
2023/06/20 13:18:00;;;;;;;;;9.25;7.00;;;;;;;;5053759;28;45370;-80
2023/06/20 13:20:25;;;;;;;;;9.50;8.25;;;;;;;;5052932;28;45594;-82
2023/06/20 13:22:51;;;;;;;;;9.50;9.25;;;;;;;;5054007;28;45710;-79
2023/06/20 13:25:16;;;;;;;;;10.00;8.25;;;;;;;;5055478;28;45498;-78
2023/06/20 13:27:42;;;;;;;;;8.00;8.00;;;;;;;;5052287;28;45913;-80
2023/06/20 13:30:07;;;;;;;;;3.50;3.50;;;;;;;;5050526;28;45783;-79
2023/06/20 13:32:33;;;;;;;;;9.75;8.50;;;;;;;;5051171;28;45339;-81
2023/06/20 13:34:59;;;;;;;;;9.00;9.00;;;;;;;;5048742;28;45394;-77
2023/06/20 13:37:24;;;;;;;;;8.00;7.00;;;;;;;;5032328;28;47045;-78
2023/06/20 13:39:50;;;;;;;;;8.50;8.00;;;;;;;;5049294;28;45683;-70
2023/06/20 13:42:15;;;;;;;;;9.25;8.00;;;;;;;;5046875;28;45469;-70
2023/06/20 13:44:40;;;;;;;;;6.25;6.25;;;;;;;;5051413;28;45369;-70
2023/06/20 13:47:06;;;;;;;;;6.25;6.25;;;;;;;;5052190;28;45401;-71
2023/06/20 13:49:31;;;;;;;;;8.25;5.75;;;;;;;;5051562;28;46911;-70
2023/06/20 13:51:56;;;;;;;;;10.75;8.00;;;;;;;;5049850;28;45704;-72
2023/06/20 13:54:22;;;;;;;;;8.50;8.00;;;;;;;;5052815;28;45595;-70
2023/06/20 13:56:47;;;;;;;;;7.00;6.50;;;;;;;;5051062;28;45916;-70
2023/06/20 13:59:13;;;;;;;;;8.00;7.00;;;;;;;;5051477;28;46851;-71
2023/06/20 14:01:39;;;;;;;;;7.25;7.25;;;;;;;;5049687;28;45740;-72
2023/06/20 14:04:04;;;;;;;;;9.50;8.25;;;;;;;;5053905;28;45860;-71
2023/06/20 14:06:30;;;;;;;;;8.00;7.00;;;;;;;;5037600;28;47292;-70
2023/06/20 14:08:56;;;;;;;;;9.50;9.50;;;;;;;;5052433;28;46822;-71
2023/06/20 14:11:21;;;;;;;;;7.50;6.50;;;;;;;;5049103;28;45691;-71
2023/06/20 14:13:46;;;;;;;;;7.25;6.00;;;;;;;;5055244;28;45405;-71
2023/06/20 14:16:11;;;;;;;;;5.25;5.25;;;;;;;;5055169;28;45441;-70
2023/06/20 14:18:37;;;;;;;;;6.00;6.00;;;;;;;;5055022;28;45299;-71
2023/06/20 14:21:02;;;;;;;;;5.50;5.50;;;;;;;;5054966;28;45485;-71
2023/06/20 14:23:27;;;;;;;;;12.75;10.50;;;;;;;;5053149;28;45657;-70
2023/06/20 14:25:53;;;;;;;;;9.00;8.00;;;;;;;;5044768;28;46543;-72
2023/06/20 14:28:21;;;;;;;;;5.25;5.25;;;;;;;;5052783;28;45752;-70
2023/06/20 14:30:47;;;;;;;;;6.00;5.25;;;;;;;;5049958;28;46034;-71
2023/06/20 14:33:13;;;;;;;;;7.50;5.50;;;;;;;;5070845;22;45401;-82
2023/06/20 14:35:45;;;;;;;;;6.00;5.25;;;;;;;;5070859;28;45730;-81
2023/06/20 14:38:11;;;;;;;;;5.25;5.25;;;;;;;;5067593;28;46130;-80
2023/06/20 14:40:37;;;;;;;;;11.00;5.75;;;;;;;;5056268;28;45482;-84
2023/06/20 14:43:23;;;;;;;;;5.50;5.50;;;;;;;;5060592;28;44938;-85
2023/06/20 14:55:32;;;;;;;;;5.50;4.25;;;;;;;;4973689;28;44849;-82
2023/06/20 15:08:00;;;;;;;;;2.25;2.25;;;;;;;;4995307;28;45551;-85
2023/06/20 15:11:12;;;;;;;;;3.25;3.00;;;;;;;;4997846;28;44904;-86
2023/06/20 15:13:47;;;;;;;;;5.00;2.75;;;;;;;;4979352;28;45791;-85
2023/06/20 15:22:19;;;;;;;;;9.00;5.00;;;;;;;;4972511;28;44755;-87
2023/06/20 15:25:24;;;;;;;;;;;;;;;;;;;;;
2023/06/20 15:43:49;;;;;;;;;5.75;5.75;;;;;;;;5055621;22;46219;-73
2023/06/20 15:46:15;;;;;;;;;6.00;6.00;;;;;;;;5082863;27;45500;-73
2023/06/20 15:48:55;;;;;;;;;6.00;4.00;;;;;;;;5071066;27;47798;-74
2023/06/20 15:51:21;;;;;;;;;5.00;4.50;;;;;;;;5087756;27;45513;-72
2023/06/20 15:53:46;;;;;;;;;3.00;3.00;;;;;;;;5081280;27;45359;-73
2023/06/20 15:56:11;;;;;;;;;6.00;5.00;;;;;;;;5073272;27;45421;-81
2023/06/20 15:58:37;;;;;;;;;3.75;3.75;;;;;;;;5085278;27;46295;-74